sensor_id;sensor_type;location;lat;lon;timestamp;pressure;altitude;pressure_sealevel;temperature;humidity
45793;BME280;31495;42.740;22.908;2023-08-07T00:00:30;92594.38;;;15.73;73.17
45793;BME280;31495;42.740;22.908;2023-08-07T00:01:29;92620.28;;;15.85;72.72
45793;BME280;31495;42.740;22.908;2023-08-07T00:02:28;92618.97;;;15.82;72.79
45793;BME280;31495;42.740;22.908;2023-08-07T00:03:28;92616.91;;;15.84;72.92
45793;BME280;31495;42.740;22.908;2023-08-07T00:04:28;92598.00;;;15.67;72.66
45793;BME280;31495;42.740;22.908;2023-08-07T00:05:27;92602.97;;;15.68;72.83
45793;BME280;31495;42.740;22.908;2023-08-07T00:06:27;92621.06;;;15.85;72.36
45793;BME280;31495;42.740;22.908;2023-08-07T00:07:27;92597.31;;;15.76;72.35
45793;BME280;31495;42.740;22.908;2023-08-07T00:08:26;92564.56;;;15.53;72.15
45793;BME280;31495;42.740;22.908;2023-08-07T00:09:25;92622.66;;;15.91;72.34
45793;BME280;31495;42.740;22.908;2023-08-07T00:10:26;92588.69;;;15.76;72.12
45793;BME280;31495;42.740;22.908;2023-08-07T00:11:25;92585.75;;;15.67;72.39
45793;BME280;31495;42.740;22.908;2023-08-07T00:12:27;92606.44;;;15.79;72.37
45793;BME280;31495;42.740;22.908;2023-08-07T00:13:26;92621.06;;;15.85;72.73
45793;BME280;31495;42.740;22.908;2023-08-07T00:14:26;92619.00;;;15.87;72.86
45793;BME280;31495;42.740;22.908;2023-08-07T00:15:25;92588.09;;;15.69;72.45
45793;BME280;31495;42.740;22.908;2023-08-07T00:16:25;92606.16;;;15.80;72.92
45793;BME280;31495;42.740;22.908;2023-08-07T00:17:24;92609.38;;;15.93;72.60
45793;BME280;31495;42.740;22.908;2023-08-07T00:18:24;92608.34;;;15.94;72.38
45793;BME280;31495;42.740;22.908;2023-08-07T00:19:23;92583.47;;;15.76;72.27
45793;BME280;31495;42.740;22.908;2023-08-07T00:20:23;92593.13;;;15.80;72.39
45793;BME280;31495;42.740;22.908;2023-08-07T00:21:22;92604.63;;;15.85;72.14
45793;BME280;31495;42.740;22.908;2023-08-07T00:22:22;92599.69;;;15.88;72.61
45793;BME280;31495;42.740;22.908;2023-08-07T00:23:22;92599.94;;;15.87;72.68
45793;BME280;31495;42.740;22.908;2023-08-07T00:24:22;92596.53;;;15.81;72.90
45793;BME280;31495;42.740;22.908;2023-08-07T00:25:21;92570.34;;;15.60;73.02
45793;BME280;31495;42.740;22.908;2023-08-07T00:26:20;92574.78;;;15.65;72.76
45793;BME280;31495;42.740;22.908;2023-08-07T00:27:20;92561.47;;;15.61;73.01
45793;BME280;31495;42.740;22.908;2023-08-07T00:28:19;92600.44;;;15.78;72.64
45793;BME280;31495;42.740;22.908;2023-08-07T00:29:19;92596.75;;;15.74;72.75
45793;BME280;31495;42.740;22.908;2023-08-07T00:30:18;92563.78;;;15.53;72.79
45793;BME280;31495;42.740;22.908;2023-08-07T00:31:18;92599.59;;;15.73;73.20
45793;BME280;31495;42.740;22.908;2023-08-07T00:32:17;92592.28;;;15.65;73.16
45793;BME280;31495;42.740;22.908;2023-08-07T00:33:16;92604.00;;;15.67;73.45
45793;BME280;31495;42.740;22.908;2023-08-07T00:34:16;92599.06;;;15.71;73.16
45793;BME280;31495;42.740;22.908;2023-08-07T00:35:15;92549.41;;;15.40;73.01
45793;BME280;31495;42.740;22.908;2023-08-07T00:36:15;92573.69;;;15.51;73.09
45793;BME280;31495;42.740;22.908;2023-08-07T00:37:14;92588.31;;;15.57;72.57
45793;BME280;31495;42.740;22.908;2023-08-07T00:38:14;92612.41;;;15.74;72.60
45793;BME280;31495;42.740;22.908;2023-08-07T00:39:14;92595.41;;;15.67;72.81
45793;BME280;31495;42.740;22.908;2023-08-07T00:40:13;92610.38;;;15.82;72.97
45793;BME280;31495;42.740;22.908;2023-08-07T00:41:13;92599.34;;;15.74;72.95
45793;BME280;31495;42.740;22.908;2023-08-07T00:42:12;92613.78;;;15.87;72.91
45793;BME280;31495;42.740;22.908;2023-08-07T00:43:12;92602.25;;;15.78;72.90
45793;BME280;31495;42.740;22.908;2023-08-07T00:44:12;92587.06;;;15.65;73.00
45793;BME280;31495;42.740;22.908;2023-08-07T00:45:11;92620.78;;;15.76;73.19
45793;BME280;31495;42.740;22.908;2023-08-07T00:46:11;92619.50;;;15.84;73.09
45793;BME280;31495;42.740;22.908;2023-08-07T00:47:11;92619.50;;;15.84;73.09
45793;BME280;31495;42.740;22.908;2023-08-07T00:48:11;92597.78;;;15.73;72.60
45793;BME280;31495;42.740;22.908;2023-08-07T00:49:12;92556.47;;;15.50;73.05
45793;BME280;31495;42.740;22.908;2023-08-07T00:50:12;92622.41;;;15.93;72.47
45793;BME280;31495;42.740;22.908;2023-08-07T00:51:12;92618.19;;;15.87;72.48
45793;BME280;31495;42.740;22.908;2023-08-07T00:52:12;92618.47;;;15.85;72.86
45793;BME280;31495;42.740;22.908;2023-08-07T00:53:11;92619.78;;;15.88;72.79
45793;BME280;31495;42.740;22.908;2023-08-07T00:54:15;92563.00;;;15.52;72.84
45793;BME280;31495;42.740;22.908;2023-08-07T00:55:14;92578.41;;;15.59;73.19
45793;BME280;31495;42.740;22.908;2023-08-07T00:56:14;92625.75;;;15.83;73.26
45793;BME280;31495;42.740;22.908;2023-08-07T00:57:15;92606.34;;;15.69;73.48
45793;BME280;31495;42.740;22.908;2023-08-07T00:58:14;92629.16;;;15.89;73.25
45793;BME280;31495;42.740;22.908;2023-08-07T00:59:15;92629.16;;;15.89;73.14
45793;BME280;31495;42.740;22.908;2023-08-07T01:00:15;92628.13;;;15.90;73.18
45793;BME280;31495;42.740;22.908;2023-08-07T01:01:15;92628.97;;;15.95;73.02
45793;BME280;31495;42.740;22.908;2023-08-07T01:02:15;92629.72;;;15.96;72.61
45793;BME280;31495;42.740;22.908;2023-08-07T01:03:14;92626.84;;;15.92;72.96
45793;BME280;31495;42.740;22.908;2023-08-07T01:04:14;92635.19;;;15.89;73.12
45793;BME280;31495;42.740;22.908;2023-08-07T01:05:13;92640.41;;;15.89;73.18
45793;BME280;31495;42.740;22.908;2023-08-07T01:06:13;92617.88;;;15.73;73.04
45793;BME280;31495;42.740;22.908;2023-08-07T01:07:12;92579.63;;;15.41;73.50
45793;BME280;31495;42.740;22.908;2023-08-07T01:08:12;92633.56;;;15.78;73.23
45793;BME280;31495;42.740;22.908;2023-08-07T01:09:11;92638.00;;;15.77;73.86
45793;BME280;31495;42.740;22.908;2023-08-07T01:10:11;92629.31;;;15.72;73.74
45793;BME280;31495;42.740;22.908;2023-08-07T01:11:43;92631.69;;;15.73;73.58
45793;BME280;31495;42.740;22.908;2023-08-07T01:12:53;92616.00;;;15.63;73.31
45793;BME280;31495;42.740;22.908;2023-08-07T01:14:22;92642.38;;;15.72;73.58
45793;BME280;31495;42.740;22.908;2023-08-07T01:15:30;92629.78;;;15.58;73.99
45793;BME280;31495;42.740;22.908;2023-08-07T01:16:40;92643.63;;;15.64;73.81
45793;BME280;31495;42.740;22.908;2023-08-07T01:17:43;92626.56;;;15.46;74.21
45793;BME280;31495;42.740;22.908;2023-08-07T01:18:45;92616.56;;;15.28;74.80
45793;BME280;31495;42.740;22.908;2023-08-07T01:19:47;92626.94;;;15.22;75.16
45793;BME280;31495;42.740;22.908;2023-08-07T01:20:46;92645.16;;;15.17;75.55
45793;BME280;31495;42.740;22.908;2023-08-07T01:21:48;92641.69;;;15.06;75.61
45793;BME280;31495;42.740;22.908;2023-08-07T01:22:48;92632.97;;;14.91;76.62
45793;BME280;31495;42.740;22.908;2023-08-07T01:23:48;92646.53;;;14.93;76.68
45793;BME280;31495;42.740;22.908;2023-08-07T01:24:51;92652.81;;;14.97;76.75
45793;BME280;31495;42.740;22.908;2023-08-07T01:25:51;92647.06;;;14.95;77.24
45793;BME280;31495;42.740;22.908;2023-08-07T01:26:52;92622.00;;;14.88;76.77
45793;BME280;31495;42.740;22.908;2023-08-07T01:28:00;92646.94;;;15.12;76.50
45793;BME280;31495;42.740;22.908;2023-08-07T01:29:08;92645.94;;;15.18;75.97
45793;BME280;31495;42.740;22.908;2023-08-07T01:31:20;92634.13;;;15.05;75.92
45793;BME280;31495;42.740;22.908;2023-08-07T01:32:42;92661.13;;;15.31;75.96
45793;BME280;31495;42.740;22.908;2023-08-07T01:33:48;92655.16;;;15.31;74.92
45793;BME280;31495;42.740;22.908;2023-08-07T01:34:52;92657.22;;;15.29;75.26
45793;BME280;31495;42.740;22.908;2023-08-07T01:35:56;92640.16;;;15.11;74.96
45793;BME280;31495;42.740;22.908;2023-08-07T01:36:57;92657.66;;;15.15;75.08
45793;BME280;31495;42.740;22.908;2023-08-07T01:37:58;92644.78;;;15.03;75.46
45793;BME280;31495;42.740;22.908;2023-08-07T01:38:59;92620.69;;;14.86;75.76
45793;BME280;31495;42.740;22.908;2023-08-07T01:40:01;92671.72;;;15.14;75.55
45793;BME280;31495;42.740;22.908;2023-08-07T01:41:03;92628.25;;;14.87;75.74
45793;BME280;31495;42.740;22.908;2023-08-07T01:42:03;92667.03;;;15.16;75.42
45793;BME280;31495;42.740;22.908;2023-08-07T01:43:04;92667.59;;;15.18;75.26
45793;BME280;31495;42.740;22.908;2023-08-07T01:44:04;92663.94;;;15.19;74.67
45793;BME280;31495;42.740;22.908;2023-08-07T01:45:05;92663.41;;;15.17;74.65
45793;BME280;31495;42.740;22.908;2023-08-07T01:46:05;92666.56;;;15.24;74.79
45793;BME280;31495;42.740;22.908;2023-08-07T01:47:06;92668.72;;;15.33;74.50
45793;BME280;31495;42.740;22.908;2023-08-07T01:48:05;92634.16;;;15.10;74.68
45793;BME280;31495;42.740;22.908;2023-08-07T01:49:04;92667.88;;;15.22;74.78
45793;BME280;31495;42.740;22.908;2023-08-07T01:50:04;92661.50;;;15.07;74.88
45793;BME280;31495;42.740;22.908;2023-08-07T01:51:04;92664.56;;;14.99;75.23
45793;BME280;31495;42.740;22.908;2023-08-07T01:52:04;92668.69;;;14.95;75.15
45793;BME280;31495;42.740;22.908;2023-08-07T01:53:03;92669.91;;;14.82;75.80
45793;BME280;31495;42.740;22.908;2023-08-07T01:54:03;92632.16;;;14.58;76.10
45793;BME280;31495;42.740;22.908;2023-08-07T01:55:02;92652.00;;;14.64;76.45
45793;BME280;31495;42.740;22.908;2023-08-07T01:56:01;92676.09;;;14.76;76.39
45793;BME280;31495;42.740;22.908;2023-08-07T01:57:02;92677.88;;;14.76;76.37
45793;BME280;31495;42.740;22.908;2023-08-07T01:58:02;92681.44;;;14.64;76.47
45793;BME280;31495;42.740;22.908;2023-08-07T01:59:02;92664.00;;;14.43;76.81
45793;BME280;31495;42.740;22.908;2023-08-07T02:00:02;92683.16;;;14.59;77.18
45793;BME280;31495;42.740;22.908;2023-08-07T02:01:02;92661.16;;;14.44;77.27
45793;BME280;31495;42.740;22.908;2023-08-07T02:02:02;92687.59;;;14.58;76.50
45793;BME280;31495;42.740;22.908;2023-08-07T02:03:02;92677.66;;;14.55;75.92
45793;BME280;31495;42.740;22.908;2023-08-07T02:04:02;92675.06;;;14.55;76.34
45793;BME280;31495;42.740;22.908;2023-08-07T02:05:02;92640.22;;;14.34;75.87
45793;BME280;31495;42.740;22.908;2023-08-07T02:06:02;92682.47;;;14.63;76.22
45793;BME280;31495;42.740;22.908;2023-08-07T02:07:02;92680.56;;;14.59;76.36
45793;BME280;31495;42.740;22.908;2023-08-07T02:08:02;92676.47;;;14.63;76.17
45793;BME280;31495;42.740;22.908;2023-08-07T02:09:01;92675.47;;;14.69;75.53
45793;BME280;31495;42.740;22.908;2023-08-07T02:10:01;92681.28;;;14.76;75.58
45793;BME280;31495;42.740;22.908;2023-08-07T02:11:00;92678.16;;;14.74;75.05
45793;BME280;31495;42.740;22.908;2023-08-07T02:12:02;92685.19;;;14.79;74.87
45793;BME280;31495;42.740;22.908;2023-08-07T02:13:02;92685.16;;;14.74;75.01
45793;BME280;31495;42.740;22.908;2023-08-07T02:14:01;92695.88;;;14.77;75.01
45793;BME280;31495;42.740;22.908;2023-08-07T02:15:02;92665.25;;;14.62;75.18
45793;BME280;31495;42.740;22.908;2023-08-07T02:16:01;92679.94;;;14.74;74.75
45793;BME280;31495;42.740;22.908;2023-08-07T02:17:02;92671.03;;;14.64;74.66
45793;BME280;31495;42.740;22.908;2023-08-07T02:18:01;92683.47;;;14.62;75.00
45793;BME280;31495;42.740;22.908;2023-08-07T02:19:01;92672.38;;;14.45;75.49
45793;BME280;31495;42.740;22.908;2023-08-07T02:20:00;92691.41;;;14.50;75.38
45793;BME280;31495;42.740;22.908;2023-08-07T02:21:00;92693.22;;;14.50;75.77
45793;BME280;31495;42.740;22.908;2023-08-07T02:22:01;92697.66;;;14.49;75.86
45793;BME280;31495;42.740;22.908;2023-08-07T02:23:00;92665.66;;;14.27;75.46
45793;BME280;31495;42.740;22.908;2023-08-07T02:24:00;92683.94;;;14.32;75.75
45793;BME280;31495;42.740;22.908;2023-08-07T02:24:59;92685.13;;;14.24;75.83
45793;BME280;31495;42.740;22.908;2023-08-07T02:25:59;92706.31;;;14.33;76.03
45793;BME280;31495;42.740;22.908;2023-08-07T02:26:58;92656.41;;;13.92;76.20
45793;BME280;31495;42.740;22.908;2023-08-07T02:27:58;92704.06;;;14.20;76.47
45793;BME280;31495;42.740;22.908;2023-08-07T02:28:57;92704.56;;;14.16;76.56
45793;BME280;31495;42.740;22.908;2023-08-07T02:29:57;92689.00;;;14.00;76.44
45793;BME280;31495;42.740;22.908;2023-08-07T02:30:56;92685.34;;;13.95;76.67
45793;BME280;31495;42.740;22.908;2023-08-07T02:31:55;92696.56;;;14.01;76.92
45793;BME280;31495;42.740;22.908;2023-08-07T02:32:55;92683.69;;;13.89;77.12
45793;BME280;31495;42.740;22.908;2023-08-07T02:33:54;92714.97;;;14.16;76.64
45793;BME280;31495;42.740;22.908;2023-08-07T02:34:54;92686.16;;;14.01;76.48
45793;BME280;31495;42.740;22.908;2023-08-07T02:35:53;92675.03;;;14.06;76.51
45793;BME280;31495;42.740;22.908;2023-08-07T02:36:52;92700.25;;;14.27;76.33
45793;BME280;31495;42.740;22.908;2023-08-07T02:37:52;92687.78;;;14.29;76.29
45793;BME280;31495;42.740;22.908;2023-08-07T02:38:51;92698.34;;;14.40;75.89
45793;BME280;31495;42.740;22.908;2023-08-07T02:39:50;92709.09;;;14.48;75.93
45793;BME280;31495;42.740;22.908;2023-08-07T02:40:50;92671.09;;;14.25;76.05
45793;BME280;31495;42.740;22.908;2023-08-07T02:41:50;92665.47;;;14.33;75.68
45793;BME280;31495;42.740;22.908;2023-08-07T02:42:49;92687.84;;;14.57;75.81
45793;BME280;31495;42.740;22.908;2023-08-07T02:43:49;92704.25;;;14.79;75.29
45793;BME280;31495;42.740;22.908;2023-08-07T02:44:48;92678.06;;;14.69;75.05
45793;BME280;31495;42.740;22.908;2023-08-07T02:45:47;92703.00;;;14.87;75.12
45793;BME280;31495;42.740;22.908;2023-08-07T02:46:47;92652.38;;;14.50;75.43
45793;BME280;31495;42.740;22.908;2023-08-07T02:47:46;92684.91;;;14.75;76.10
45793;BME280;31495;42.740;22.908;2023-08-07T02:48:45;92677.34;;;14.74;75.89
45793;BME280;31495;42.740;22.908;2023-08-07T02:49:45;92703.00;;;14.87;75.94
45793;BME280;31495;42.740;22.908;2023-08-07T02:50:44;92659.53;;;14.60;76.25
45793;BME280;31495;42.740;22.908;2023-08-07T02:51:44;92673.72;;;14.52;76.74
45793;BME280;31495;42.740;22.908;2023-08-07T02:52:43;92699.91;;;14.63;77.15
45793;BME280;31495;42.740;22.908;2023-08-07T02:53:43;92690.63;;;14.50;77.52
45793;BME280;31495;42.740;22.908;2023-08-07T02:54:42;92678.34;;;14.45;77.60
45793;BME280;31495;42.740;22.908;2023-08-07T02:55:43;92700.44;;;14.65;77.79
45793;BME280;31495;42.740;22.908;2023-08-07T02:56:43;92666.91;;;14.46;77.65
45793;BME280;31495;42.740;22.908;2023-08-07T02:57:42;92695.97;;;14.60;77.77
45793;BME280;31495;42.740;22.908;2023-08-07T02:58:42;92665.09;;;14.47;78.04
45793;BME280;31495;42.740;22.908;2023-08-07T02:59:41;92707.28;;;14.71;77.83
45793;BME280;31495;42.740;22.908;2023-08-07T03:00:40;92669.84;;;14.55;77.82
45793;BME280;31495;42.740;22.908;2023-08-07T03:01:40;92649.72;;;14.45;77.83
45793;BME280;31495;42.740;22.908;2023-08-07T03:02:39;92690.56;;;14.67;77.57
45793;BME280;31495;42.740;22.908;2023-08-07T03:03:39;92700.38;;;14.87;77.67
45793;BME280;31495;42.740;22.908;2023-08-07T03:04:38;92692.28;;;14.83;77.35
45793;BME280;31495;42.740;22.908;2023-08-07T03:05:38;92669.00;;;14.72;77.15
45793;BME280;31495;42.740;22.908;2023-08-07T03:06:37;92697.25;;;14.85;77.44
45793;BME280;31495;42.740;22.908;2023-08-07T03:07:36;92646.97;;;14.57;77.42
45793;BME280;31495;42.740;22.908;2023-08-07T03:08:36;92679.50;;;14.82;77.05
45793;BME280;31495;42.740;22.908;2023-08-07T03:09:36;92700.25;;;14.99;76.79
45793;BME280;31495;42.740;22.908;2023-08-07T03:10:35;92673.56;;;14.86;76.79
45793;BME280;31495;42.740;22.908;2023-08-07T03:11:34;92698.66;;;14.98;76.44
45793;BME280;31495;42.740;22.908;2023-08-07T03:12:34;92666.47;;;14.82;76.50
45793;BME280;31495;42.740;22.908;2023-08-07T03:13:33;92669.09;;;14.82;76.54
45793;BME280;31495;42.740;22.908;2023-08-07T03:14:33;92686.41;;;14.98;76.75
45793;BME280;31495;42.740;22.908;2023-08-07T03:15:32;92682.16;;;14.87;76.94
45793;BME280;31495;42.740;22.908;2023-08-07T03:16:31;92641.81;;;14.62;76.44
45793;BME280;31495;42.740;22.908;2023-08-07T03:17:32;92694.00;;;15.00;76.66
45793;BME280;31495;42.740;22.908;2023-08-07T03:18:32;92670.38;;;14.79;76.41
45793;BME280;31495;42.740;22.908;2023-08-07T03:19:32;92698.72;;;15.03;76.54
45793;BME280;31495;42.740;22.908;2023-08-07T03:20:31;92696.03;;;14.93;77.10
45793;BME280;31495;42.740;22.908;2023-08-07T03:21:31;92688.22;;;14.93;76.96
45793;BME280;31495;42.740;22.908;2023-08-07T03:22:30;92694.00;;;15.00;77.11
45793;BME280;31495;42.740;22.908;2023-08-07T03:23:29;92662.13;;;14.87;76.87
45793;BME280;31495;42.740;22.908;2023-08-07T03:24:29;92649.56;;;14.79;76.81
45793;BME280;31495;42.740;22.908;2023-08-07T03:25:28;92654.03;;;14.84;76.84
45793;BME280;31495;42.740;22.908;2023-08-07T03:26:28;92667.88;;;14.89;76.82
45793;BME280;31495;42.740;22.908;2023-08-07T03:27:27;92694.84;;;15.05;77.19
45793;BME280;31495;42.740;22.908;2023-08-07T03:28:27;92682.75;;;14.94;77.26
45793;BME280;31495;42.740;22.908;2023-08-07T03:29:27;92690.41;;;15.06;76.90
45793;BME280;31495;42.740;22.908;2023-08-07T03:30:26;92661.09;;;14.94;76.48
45793;BME280;31495;42.740;22.908;2023-08-07T03:31:26;92665.25;;;14.89;76.45
45793;BME280;31495;42.740;22.908;2023-08-07T03:32:25;92699.84;;;15.12;76.67
45793;BME280;31495;42.740;22.908;2023-08-07T03:33:25;92704.56;;;15.15;76.57
45793;BME280;31495;42.740;22.908;2023-08-07T03:34:24;92682.75;;;14.94;77.04
45793;BME280;31495;42.740;22.908;2023-08-07T03:35:24;92710.97;;;15.02;77.31
45793;BME280;31495;42.740;22.908;2023-08-07T03:36:23;92683.44;;;14.84;77.29
45793;BME280;31495;42.740;22.908;2023-08-07T03:37:23;92711.53;;;15.10;76.97
45793;BME280;31495;42.740;22.908;2023-08-07T03:38:22;92716.69;;;15.04;77.28
45793;BME280;31495;42.740;22.908;2023-08-07T03:39:21;92693.66;;;14.91;77.13
45793;BME280;31495;42.740;22.908;2023-08-07T03:40:21;92667.78;;;14.79;76.98
45793;BME280;31495;42.740;22.908;2023-08-07T03:41:20;92716.53;;;15.16;76.92
45793;BME280;31495;42.740;22.908;2023-08-07T03:42:20;92691.13;;;15.01;76.76
45793;BME280;31495;42.740;22.908;2023-08-07T03:43:19;92710.50;;;15.11;77.13
45793;BME280;31495;42.740;22.908;2023-08-07T03:44:19;92704.16;;;15.01;77.10
45793;BME280;31495;42.740;22.908;2023-08-07T03:45:18;92693.94;;;14.95;77.00
45793;BME280;31495;42.740;22.908;2023-08-07T03:46:17;92690.09;;;14.97;77.38
45793;BME280;31495;42.740;22.908;2023-08-07T03:47:17;92722.84;;;15.20;77.26
45793;BME280;31495;42.740;22.908;2023-08-07T03:48:16;92725.72;;;15.24;76.78
45793;BME280;31495;42.740;22.908;2023-08-07T03:49:15;92697.19;;;15.07;76.99
45793;BME280;31495;42.740;22.908;2023-08-07T03:50:15;92681.47;;;14.97;77.01
45793;BME280;31495;42.740;22.908;2023-08-07T03:51:14;92692.72;;;15.02;77.05
45793;BME280;31495;42.740;22.908;2023-08-07T03:52:15;92723.66;;;15.26;77.01
45793;BME280;31495;42.740;22.908;2023-08-07T03:53:17;92725.72;;;15.24;77.10
45793;BME280;31495;42.740;22.908;2023-08-07T03:54:17;92683.31;;;15.01;77.02
45793;BME280;31495;42.740;22.908;2023-08-07T03:55:16;92706.38;;;15.15;77.05
45793;BME280;31495;42.740;22.908;2023-08-07T03:56:15;92713.72;;;15.23;77.30
45793;BME280;31495;42.740;22.908;2023-08-07T03:57:15;92723.66;;;15.26;77.12
45793;BME280;31495;42.740;22.908;2023-08-07T03:58:14;92706.91;;;15.17;77.06
45793;BME280;31495;42.740;22.908;2023-08-07T03:59:14;92731.47;;;15.26;77.07
45793;BME280;31495;42.740;22.908;2023-08-07T04:00:13;92711.25;;;15.06;77.37
45793;BME280;31495;42.740;22.908;2023-08-07T04:01:13;92726.38;;;15.09;77.56
45793;BME280;31495;42.740;22.908;2023-08-07T04:02:12;92725.34;;;15.10;77.43
45793;BME280;31495;42.740;22.908;2023-08-07T04:03:12;92730.91;;;15.19;77.49
45793;BME280;31495;42.740;22.908;2023-08-07T04:04:11;92713.38;;;15.09;77.66
45793;BME280;31495;42.740;22.908;2023-08-07T04:05:11;92738.28;;;15.27;77.61
45793;BME280;31495;42.740;22.908;2023-08-07T04:06:10;92720.13;;;15.10;77.30
45793;BME280;31495;42.740;22.908;2023-08-07T04:07:15;92743.97;;;15.24;77.01
45793;BME280;31495;42.740;22.908;2023-08-07T04:08:14;92745.00;;;15.23;77.41
45793;BME280;31495;42.740;22.908;2023-08-07T04:09:14;92738.53;;;15.25;77.13
45793;BME280;31495;42.740;22.908;2023-08-07T04:10:13;92723.78;;;15.09;77.51
45793;BME280;31495;42.740;22.908;2023-08-07T04:11:13;92733.31;;;15.25;77.38
45793;BME280;31495;42.740;22.908;2023-08-07T04:12:13;92723.34;;;15.17;77.51
45793;BME280;31495;42.740;22.908;2023-08-07T04:13:12;92735.16;;;15.30;77.17
45793;BME280;31495;42.740;22.908;2023-08-07T04:14:12;92698.72;;;15.03;77.16
45793;BME280;31495;42.740;22.908;2023-08-07T04:15:11;92713.69;;;15.18;77.20
45793;BME280;31495;42.740;22.908;2023-08-07T04:16:10;92715.28;;;15.19;77.26
45793;BME280;31495;42.740;22.908;2023-08-07T04:17:10;92715.03;;;15.20;76.93
45793;BME280;31495;42.740;22.908;2023-08-07T04:18:10;92728.09;;;15.25;77.20
45793;BME280;31495;42.740;22.908;2023-08-07T04:19:11;92740.47;;;15.40;76.84
45793;BME280;31495;42.740;22.908;2023-08-07T04:20:11;92674.44;;;14.97;76.82
45793;BME280;31495;42.740;22.908;2023-08-07T04:21:11;92734.44;;;15.35;76.63
45793;BME280;31495;42.740;22.908;2023-08-07T04:22:10;92700.16;;;15.21;76.78
45793;BME280;31495;42.740;22.908;2023-08-07T04:23:09;92738.66;;;15.46;76.87
45793;BME280;31495;42.740;22.908;2023-08-07T04:24:09;92735.00;;;15.42;76.78
45793;BME280;31495;42.740;22.908;2023-08-07T04:25:10;92730.69;;;15.25;77.13
45793;BME280;31495;42.740;22.908;2023-08-07T04:26:09;92719.72;;;15.18;77.12
45793;BME280;31495;42.740;22.908;2023-08-07T04:27:09;92721.75;;;15.16;77.18
45793;BME280;31495;42.740;22.908;2023-08-07T04:28:08;92727.78;;;15.17;77.42
45793;BME280;31495;42.740;22.908;2023-08-07T04:29:08;92739.53;;;15.24;77.55
45793;BME280;31495;42.740;22.908;2023-08-07T04:30:07;92722.00;;;15.15;77.39
45793;BME280;31495;42.740;22.908;2023-08-07T04:31:07;92738.56;;;15.31;77.48
45793;BME280;31495;42.740;22.908;2023-08-07T04:32:07;92750.13;;;15.40;77.21
45793;BME280;31495;42.740;22.908;2023-08-07T04:33:07;92734.13;;;15.31;76.97
45793;BME280;31495;42.740;22.908;2023-08-07T04:34:06;92754.28;;;15.41;76.93
45793;BME280;31495;42.740;22.908;2023-08-07T04:35:06;92756.38;;;15.44;76.87
45793;BME280;31495;42.740;22.908;2023-08-07T04:36:06;92715.75;;;15.16;77.12
45793;BME280;31495;42.740;22.908;2023-08-07T04:37:06;92730.97;;;15.29;76.82
45793;BME280;31495;42.740;22.908;2023-08-07T04:38:06;92756.97;;;15.51;76.61
45793;BME280;31495;42.740;22.908;2023-08-07T04:39:05;92749.66;;;15.48;76.81
45793;BME280;31495;42.740;22.908;2023-08-07T04:40:05;92760.38;;;15.52;76.32
45793;BME280;31495;42.740;22.908;2023-08-07T04:41:04;92757.75;;;15.52;76.44
45793;BME280;31495;42.740;22.908;2023-08-07T04:42:04;92755.47;;;15.60;76.51
45793;BME280;31495;42.740;22.908;2023-08-07T04:43:04;92749.75;;;15.63;76.55
45793;BME280;31495;42.740;22.908;2023-08-07T04:44:03;92747.66;;;15.60;76.58
45793;BME280;31495;42.740;22.908;2023-08-07T04:45:03;92747.94;;;15.64;76.75
45793;BME280;31495;42.740;22.908;2023-08-07T04:46:03;92724.16;;;15.55;76.68
45793;BME280;31495;42.740;22.908;2023-08-07T04:47:02;92744.06;;;15.72;76.67
45793;BME280;31495;42.740;22.908;2023-08-07T04:48:02;92712.59;;;15.46;76.95
45793;BME280;31495;42.740;22.908;2023-08-07T04:49:01;92725.44;;;15.53;76.97
45793;BME280;31495;42.740;22.908;2023-08-07T04:50:01;92717.41;;;15.59;76.89
45793;BME280;31495;42.740;22.908;2023-08-07T04:51:00;92746.44;;;15.73;77.07
45793;BME280;31495;42.740;22.908;2023-08-07T04:51:59;92701.34;;;15.40;77.07
45793;BME280;31495;42.740;22.908;2023-08-07T04:52:58;92744.59;;;15.74;76.66
45793;BME280;31495;42.740;22.908;2023-08-07T04:53:58;92722.88;;;15.58;76.76
45793;BME280;31495;42.740;22.908;2023-08-07T04:54:57;92745.47;;;15.79;76.86
45793;BME280;31495;42.740;22.908;2023-08-07T04:55:56;92746.00;;;15.82;76.57
45793;BME280;31495;42.740;22.908;2023-08-07T04:56:56;92745.19;;;15.76;76.79
45793;BME280;31495;42.740;22.908;2023-08-07T04:57:55;92742.59;;;15.76;76.69
45793;BME280;31495;42.740;22.908;2023-08-07T04:58:55;92720.03;;;15.59;76.46
45793;BME280;31495;42.740;22.908;2023-08-07T04:59:55;92746.25;;;15.80;76.66
45793;BME280;31495;42.740;22.908;2023-08-07T05:00:55;92744.16;;;15.82;76.80
45793;BME280;31495;42.740;22.908;2023-08-07T05:01:55;92698.56;;;15.52;76.68
45793;BME280;31495;42.740;22.908;2023-08-07T05:02:54;92728.41;;;15.67;76.35
45793;BME280;31495;42.740;22.908;2023-08-07T05:03:54;92722.94;;;15.68;76.55
45793;BME280;31495;42.740;22.908;2023-08-07T05:04:53;92752.56;;;15.89;76.56
45793;BME280;31495;42.740;22.908;2023-08-07T05:06:01;92725.56;;;15.73;76.22
45793;BME280;31495;42.740;22.908;2023-08-07T05:07:02;92750.00;;;15.94;76.06
45793;BME280;31495;42.740;22.908;2023-08-07T05:08:01;92750.53;;;15.96;75.76
45793;BME280;31495;42.740;22.908;2023-08-07T05:09:01;92739.03;;;15.92;75.66
45793;BME280;31495;42.740;22.908;2023-08-07T05:10:01;92739.06;;;15.97;75.52
45793;BME280;31495;42.740;22.908;2023-08-07T05:11:01;92732.50;;;15.95;75.75
45793;BME280;31495;42.740;22.908;2023-08-07T05:12:00;92745.59;;;16.05;75.64
45793;BME280;31495;42.740;22.908;2023-08-07T05:13:00;92744.06;;;16.09;75.06
45793;BME280;31495;42.740;22.908;2023-08-07T05:13:59;92732.84;;;16.04;74.75
45793;BME280;31495;42.740;22.908;2023-08-07T05:14:58;92742.19;;;15.99;75.37
45793;BME280;31495;42.740;22.908;2023-08-07T05:15:58;92757.34;;;16.03;75.88